sensor_id;sensor_type;location;lat;lon;timestamp;pressure;altitude;pressure_sealevel;temperature;humidity
53300;BME280;39187;48.476;8.310;2023-08-31T00:02:06;90843.09;;;10.95;100.00
53300;BME280;39187;48.476;8.310;2023-08-31T00:04:32;90845.25;;;11.00;100.00
53300;BME280;39187;48.476;8.310;2023-08-31T00:06:58;90851.00;;;10.98;100.00
53300;BME280;39187;48.476;8.310;2023-08-31T00:09:24;90851.19;;;10.91;100.00
53300;BME280;39187;48.476;8.310;2023-08-31T00:11:51;90854.41;;;10.99;100.00
53300;BME280;39187;48.476;8.310;2023-08-31T00:14:17;90856.00;;;10.96;100.00
53300;BME280;39187;48.476;8.310;2023-08-31T00:16:43;90855.38;;;11.05;100.00
53300;BME280;39187;48.476;8.310;2023-08-31T00:19:11;90859.19;;;10.91;100.00
53300;BME280;39187;48.476;8.310;2023-08-31T00:21:37;90854.72;;;10.59;100.00
53300;BME280;39187;48.476;8.310;2023-08-31T00:24:03;90843.25;;;10.62;100.00
53300;BME280;39187;48.476;8.310;2023-08-31T00:26:29;90845.09;;;10.78;100.00
53300;BME280;39187;48.476;8.310;2023-08-31T00:28:56;90845.72;;;10.82;100.00
53300;BME280;39187;48.476;8.310;2023-08-31T00:31:22;90850.88;;;11.02;100.00
53300;BME280;39187;48.476;8.310;2023-08-31T00:33:48;90853.72;;;10.82;100.00
53300;BME280;39187;48.476;8.310;2023-08-31T00:36:14;90858.50;;;10.74;100.00
53300;BME280;39187;48.476;8.310;2023-08-31T00:38:40;90858.09;;;10.89;100.00
53300;BME280;39187;48.476;8.310;2023-08-31T00:41:05;90861.84;;;10.91;100.00
53300;BME280;39187;48.476;8.310;2023-08-31T00:43:31;90857.16;;;10.95;100.00
53300;BME280;39187;48.476;8.310;2023-08-31T00:45:58;90866.06;;;10.76;100.00
53300;BME280;39187;48.476;8.310;2023-08-31T00:48:24;90857.75;;;10.74;100.00
53300;BME280;39187;48.476;8.310;2023-08-31T00:50:50;90849.59;;;10.81;100.00
53300;BME280;39187;48.476;8.310;2023-08-31T00:53:17;90845.44;;;10.80;100.00
53300;BME280;39187;48.476;8.310;2023-08-31T00:55:45;90852.81;;;10.60;100.00
53300;BME280;39187;48.476;8.310;2023-08-31T00:58:11;90853.69;;;10.69;100.00
53300;BME280;39187;48.476;8.310;2023-08-31T01:00:40;90853.50;;;10.76;100.00
53300;BME280;39187;48.476;8.310;2023-08-31T01:03:13;90857.03;;;10.86;100.00
53300;BME280;39187;48.476;8.310;2023-08-31T01:05:46;90853.00;;;10.81;100.00
53300;BME280;39187;48.476;8.310;2023-08-31T01:08:35;90866.16;;;10.72;100.00
53300;BME280;39187;48.476;8.310;2023-08-31T01:11:24;90865.72;;;10.61;100.00
53300;BME280;39187;48.476;8.310;2023-08-31T01:14:11;90864.03;;;10.67;100.00
53300;BME280;39187;48.476;8.310;2023-08-31T01:16:39;90848.38;;;10.69;100.00
53300;BME280;39187;48.476;8.310;2023-08-31T01:21:57;90859.69;;;10.44;100.00
53300;BME280;39187;48.476;8.310;2023-08-31T01:24:25;90857.16;;;10.54;100.00
53300;BME280;39187;48.476;8.310;2023-08-31T01:26:51;90855.91;;;10.58;100.00
53300;BME280;39187;48.476;8.310;2023-08-31T01:29:18;90859.63;;;10.61;100.00
53300;BME280;39187;48.476;8.310;2023-08-31T01:31:44;90858.19;;;10.43;100.00
53300;BME280;39187;48.476;8.310;2023-08-31T01:34:10;90856.41;;;10.24;100.00
53300;BME280;39187;48.476;8.310;2023-08-31T01:36:41;90857.97;;;10.05;100.00
53300;BME280;39187;48.476;8.310;2023-08-31T01:39:12;90861.00;;;10.24;100.00
53300;BME280;39187;48.476;8.310;2023-08-31T01:41:40;90872.09;;;10.35;100.00
53300;BME280;39187;48.476;8.310;2023-08-31T01:44:12;90866.16;;;10.43;100.00
53300;BME280;39187;48.476;8.310;2023-08-31T01:46:45;90864.16;;;10.48;100.00
53300;BME280;39187;48.476;8.310;2023-08-31T01:49:11;90870.75;;;10.43;100.00
53300;BME280;39187;48.476;8.310;2023-08-31T01:51:37;90874.47;;;10.45;100.00
53300;BME280;39187;48.476;8.310;2023-08-31T01:54:02;90880.22;;;10.44;100.00
53300;BME280;39187;48.476;8.310;2023-08-31T01:56:28;90880.03;;;10.51;100.00
53300;BME280;39187;48.476;8.310;2023-08-31T01:58:54;90882.78;;;10.48;100.00
53300;BME280;39187;48.476;8.310;2023-08-31T02:01:20;90882.50;;;10.58;100.00
53300;BME280;39187;48.476;8.310;2023-08-31T02:03:45;90877.28;;;10.55;100.00
53300;BME280;39187;48.476;8.310;2023-08-31T02:06:11;90889.31;;;10.59;100.00
53300;BME280;39187;48.476;8.310;2023-08-31T02:08:37;90884.94;;;10.53;100.00
53300;BME280;39187;48.476;8.310;2023-08-31T02:11:02;90875.38;;;10.55;100.00
53300;BME280;39187;48.476;8.310;2023-08-31T02:13:29;90880.59;;;10.59;100.00
53300;BME280;39187;48.476;8.310;2023-08-31T02:15:55;90883.78;;;10.54;100.00
53300;BME280;39187;48.476;8.310;2023-08-31T02:18:21;90890.78;;;10.48;100.00
53300;BME280;39187;48.476;8.310;2023-08-31T02:20:47;90878.88;;;10.52;100.00
53300;BME280;39187;48.476;8.310;2023-08-31T02:23:12;90874.94;;;10.57;100.00
53300;BME280;39187;48.476;8.310;2023-08-31T02:25:38;90878.88;;;10.52;100.00
53300;BME280;39187;48.476;8.310;2023-08-31T02:28:04;90890.38;;;10.49;100.00
53300;BME280;39187;48.476;8.310;2023-08-31T02:30:30;90891.75;;;10.54;100.00
53300;BME280;39187;48.476;8.310;2023-08-31T02:32:55;90889.84;;;10.54;100.00
53300;BME280;39187;48.476;8.310;2023-08-31T02:35:21;90894.44;;;10.37;100.00
53300;BME280;39187;48.476;8.310;2023-08-31T02:37:46;90895.19;;;10.38;100.00
53300;BME280;39187;48.476;8.310;2023-08-31T02:40:12;90886.03;;;10.55;100.00
53300;BME280;39187;48.476;8.310;2023-08-31T02:42:38;90892.53;;;10.38;100.00
53300;BME280;39187;48.476;8.310;2023-08-31T02:45:04;90891.59;;;10.44;100.00
53300;BME280;39187;48.476;8.310;2023-08-31T02:47:30;90891.13;;;10.50;100.00
53300;BME280;39187;48.476;8.310;2023-08-31T02:49:55;90891.88;;;10.34;100.00
53300;BME280;39187;48.476;8.310;2023-08-31T02:52:21;90892.31;;;10.32;100.00
53300;BME280;39187;48.476;8.310;2023-08-31T02:54:47;90896.41;;;10.21;100.00
53300;BME280;39187;48.476;8.310;2023-08-31T02:57:13;90896.13;;;10.31;100.00
53300;BME280;39187;48.476;8.310;2023-08-31T02:59:38;90886.06;;;10.39;100.00
53300;BME280;39187;48.476;8.310;2023-08-31T03:02:04;90893.03;;;10.49;100.00
53300;BME280;39187;48.476;8.310;2023-08-31T03:04:29;90899.75;;;10.37;100.00
53300;BME280;39187;48.476;8.310;2023-08-31T03:06:56;90891.88;;;10.34;100.00
53300;BME280;39187;48.476;8.310;2023-08-31T03:09:22;90892.66;;;10.18;100.00
53300;BME280;39187;48.476;8.310;2023-08-31T03:11:47;90901.84;;;10.46;100.00
53300;BME280;39187;48.476;8.310;2023-08-31T03:14:13;90893.56;;;10.57;100.00
53300;BME280;39187;48.476;8.310;2023-08-31T03:16:38;90897.91;;;10.51;100.00
53300;BME280;39187;48.476;8.310;2023-08-31T03:19:04;90897.09;;;10.54;100.00
53300;BME280;39187;48.476;8.310;2023-08-31T03:21:30;90901.38;;;10.64;100.00
53300;BME280;39187;48.476;8.310;2023-08-31T03:23:56;90895.56;;;10.69;100.00
53300;BME280;39187;48.476;8.310;2023-08-31T03:26:21;90891.88;;;10.63;100.00
53300;BME280;39187;48.476;8.310;2023-08-31T03:28:47;90895.72;;;10.62;100.00
53300;BME280;39187;48.476;8.310;2023-08-31T03:31:13;90893.28;;;10.38;100.00
53300;BME280;39187;48.476;8.310;2023-08-31T03:33:38;90894.59;;;10.47;100.00
53300;BME280;39187;48.476;8.310;2023-08-31T03:36:04;90911.13;;;10.54;100.00
53300;BME280;39187;48.476;8.310;2023-08-31T03:38:33;90908.88;;;10.53;100.00
53300;BME280;39187;48.476;8.310;2023-08-31T03:41:02;90904.53;;;10.59;100.00
53300;BME280;39187;48.476;8.310;2023-08-31T03:43:28;90912.28;;;10.53;100.00
53300;BME280;39187;48.476;8.310;2023-08-31T03:45:56;90913.75;;;10.41;100.00
53300;BME280;39187;48.476;8.310;2023-08-31T03:48:25;90920.88;;;10.44;100.00
53300;BME280;39187;48.476;8.310;2023-08-31T03:50:54;90916.41;;;10.25;100.00
53300;BME280;39187;48.476;8.310;2023-08-31T03:53:20;90915.13;;;10.46;100.00
53300;BME280;39187;48.476;8.310;2023-08-31T03:55:45;90926.38;;;10.37;100.00
53300;BME280;39187;48.476;8.310;2023-08-31T03:58:11;90926.88;;;10.32;100.00
53300;BME280;39187;48.476;8.310;2023-08-31T04:00:37;90929.00;;;10.54;100.00
53300;BME280;39187;48.476;8.310;2023-08-31T04:03:03;90929.44;;;10.52;100.00
53300;BME280;39187;48.476;8.310;2023-08-31T04:05:33;90925.19;;;10.55;100.00
53300;BME280;39187;48.476;8.310;2023-08-31T04:08:00;90927.13;;;10.38;100.00
53300;BME280;39187;48.476;8.310;2023-08-31T04:10:25;90923.47;;;10.32;100.00
53300;BME280;39187;48.476;8.310;2023-08-31T04:12:52;90919.25;;;10.18;100.00
53300;BME280;39187;48.476;8.310;2023-08-31T04:15:17;90926.38;;;10.37;100.00
53300;BME280;39187;48.476;8.310;2023-08-31T04:17:43;90923.47;;;10.48;100.00
53300;BME280;39187;48.476;8.310;2023-08-31T04:20:10;90928.03;;;10.48;100.00
53300;BME280;39187;48.476;8.310;2023-08-31T04:22:35;90927.72;;;10.29;100.00
53300;BME280;39187;48.476;8.310;2023-08-31T04:25:01;90932.03;;;10.07;100.00
53300;BME280;39187;48.476;8.310;2023-08-31T04:27:27;90930.81;;;10.28;100.00
53300;BME280;39187;48.476;8.310;2023-08-31T04:29:55;90937.69;;;10.25;100.00
53300;BME280;39187;48.476;8.310;2023-08-31T04:32:21;90937.59;;;9.96;100.00
53300;BME280;39187;48.476;8.310;2023-08-31T04:34:46;90942.59;;;10.27;100.00
53300;BME280;39187;48.476;8.310;2023-08-31T04:37:12;90948.09;;;10.20;100.00
53300;BME280;39187;48.476;8.310;2023-08-31T04:39:37;90947.06;;;10.14;100.00
53300;BME280;39187;48.476;8.310;2023-08-31T04:42:03;90946.91;;;10.04;100.00
53300;BME280;39187;48.476;8.310;2023-08-31T04:44:29;90942.25;;;10.25;100.00
53300;BME280;39187;48.476;8.310;2023-08-31T04:46:55;90937.03;;;10.21;100.00
53300;BME280;39187;48.476;8.310;2023-08-31T04:49:21;90935.47;;;10.24;100.00
53300;BME280;39187;48.476;8.310;2023-08-31T04:51:46;90932.97;;;10.17;100.00
53300;BME280;39187;48.476;8.310;2023-08-31T04:54:12;90935.69;;;9.97;100.00
53300;BME280;39187;48.476;8.310;2023-08-31T04:56:37;90936.28;;;10.21;100.00
53300;BME280;39187;48.476;8.310;2023-08-31T04:59:03;90940.28;;;10.29;100.00
53300;BME280;39187;48.476;8.310;2023-08-31T05:01:29;90937.09;;;10.34;100.00
53300;BME280;39187;48.476;8.310;2023-08-31T05:03:54;90938.78;;;10.28;100.00
53300;BME280;39187;48.476;8.310;2023-08-31T05:06:20;90945.19;;;10.30;100.00
53300;BME280;39187;48.476;8.310;2023-08-31T05:08:48;90952.16;;;10.40;100.00
53300;BME280;39187;48.476;8.310;2023-08-31T05:11:14;90964.03;;;10.36;100.00
53300;BME280;39187;48.476;8.310;2023-08-31T05:13:40;90962.22;;;10.17;100.00
53300;BME280;39187;48.476;8.310;2023-08-31T05:16:08;90965.34;;;10.12;100.00
53300;BME280;39187;48.476;8.310;2023-08-31T05:18:34;90964.53;;;10.15;100.00
53300;BME280;39187;48.476;8.310;2023-08-31T05:20:59;90959.88;;;10.19;100.00
53300;BME280;39187;48.476;8.310;2023-08-31T05:23:25;90966.94;;;10.09;100.00
53300;BME280;39187;48.476;8.310;2023-08-31T05:25:50;90976.66;;;10.16;100.00
53300;BME280;39187;48.476;8.310;2023-08-31T05:28:16;90978.44;;;10.22;100.00
53300;BME280;39187;48.476;8.310;2023-08-31T05:30:49;90988.53;;;10.43;100.00
53300;BME280;39187;48.476;8.310;2023-08-31T05:33:17;90983.66;;;10.42;100.00
53300;BME280;39187;48.476;8.310;2023-08-31T05:35:42;90985.94;;;10.56;100.00
53300;BME280;39187;48.476;8.310;2023-08-31T05:38:08;90984.50;;;11.13;100.00
53300;BME280;39187;48.476;8.310;2023-08-31T05:40:33;90990.06;;;11.18;100.00
53300;BME280;39187;48.476;8.310;2023-08-31T05:42:59;90992.81;;;11.44;100.00
53300;BME280;39187;48.476;8.310;2023-08-31T05:45:24;90999.84;;;11.50;100.00
53300;BME280;39187;48.476;8.310;2023-08-31T05:47:50;90995.13;;;11.83;100.00
53300;BME280;39187;48.476;8.310;2023-08-31T05:50:16;91005.16;;;12.04;100.00
53300;BME280;39187;48.476;8.310;2023-08-31T05:52:41;90996.25;;;12.58;100.00
53300;BME280;39187;48.476;8.310;2023-08-31T05:55:10;91004.34;;;13.14;100.00
53300;BME280;39187;48.476;8.310;2023-08-31T05:57:35;91002.81;;;13.70;100.00
53300;BME280;39187;48.476;8.310;2023-08-31T06:00:03;91003.16;;;13.81;100.00
53300;BME280;39187;48.476;8.310;2023-08-31T06:02:29;91008.84;;;14.23;97.94
53300;BME280;39187;48.476;8.310;2023-08-31T06:04:55;91013.44;;;14.44;97.14
53300;BME280;39187;48.476;8.310;2023-08-31T06:07:21;91007.81;;;14.51;94.00
53300;BME280;39187;48.476;8.310;2023-08-31T06:09:47;91005.09;;;14.42;94.62
53300;BME280;39187;48.476;8.310;2023-08-31T06:12:13;91018.91;;;14.90;92.94
53300;BME280;39187;48.476;8.310;2023-08-31T06:14:39;91013.25;;;14.97;88.84
53300;BME280;39187;48.476;8.310;2023-08-31T06:17:05;91020.13;;;15.07;86.57
53300;BME280;39187;48.476;8.310;2023-08-31T06:19:30;91014.19;;;15.39;87.90
53300;BME280;39187;48.476;8.310;2023-08-31T06:21:56;91018.94;;;15.44;87.26
53300;BME280;39187;48.476;8.310;2023-08-31T06:24:21;91024.47;;;15.59;87.04
53300;BME280;39187;48.476;8.310;2023-08-31T06:26:47;91029.06;;;15.77;83.00
53300;BME280;39187;48.476;8.310;2023-08-31T06:29:12;91022.63;;;16.01;81.23
53300;BME280;39187;48.476;8.310;2023-08-31T06:31:38;91022.78;;;15.89;79.71
53300;BME280;39187;48.476;8.310;2023-08-31T06:34:04;91030.09;;;15.88;81.14
53300;BME280;39187;48.476;8.310;2023-08-31T06:36:29;91016.97;;;15.99;80.92
53300;BME280;39187;48.476;8.310;2023-08-31T06:38:55;91019.53;;;16.36;78.32
53300;BME280;39187;48.476;8.310;2023-08-31T06:41:21;91030.69;;;15.92;79.33
53300;BME280;39187;48.476;8.310;2023-08-31T06:43:46;91021.09;;;16.19;77.65
53300;BME280;39187;48.476;8.310;2023-08-31T06:46:12;91026.97;;;16.83;73.49
53300;BME280;39187;48.476;8.310;2023-08-31T06:48:37;91019.41;;;16.72;72.15
53300;BME280;39187;48.476;8.310;2023-08-31T06:51:03;91014.28;;;17.07;70.14
53300;BME280;39187;48.476;8.310;2023-08-31T06:53:29;91018.56;;;17.76;64.65
53300;BME280;39187;48.476;8.310;2023-08-31T06:55:57;91019.59;;;17.79;62.00
53300;BME280;39187;48.476;8.310;2023-08-31T06:58:23;91030.25;;;17.73;62.25
53300;BME280;39187;48.476;8.310;2023-08-31T07:00:49;91033.00;;;18.02;62.20
53300;BME280;39187;48.476;8.310;2023-08-31T07:03:14;91027.59;;;18.47;59.12
53300;BME280;39187;48.476;8.310;2023-08-31T07:05:43;91032.59;;;18.54;56.15
53300;BME280;39187;48.476;8.310;2023-08-31T07:08:09;91040.69;;;18.68;56.17
53300;BME280;39187;48.476;8.310;2023-08-31T07:10:35;91031.56;;;18.51;55.28
53300;BME280;39187;48.476;8.310;2023-08-31T07:13:03;91037.41;;;18.79;54.43
53300;BME280;39187;48.476;8.310;2023-08-31T07:15:29;91046.63;;;18.14;53.50
53300;BME280;39187;48.476;8.310;2023-08-31T07:17:54;91037.91;;;18.48;51.85
53300;BME280;39187;48.476;8.310;2023-08-31T07:20:20;91036.34;;;19.26;51.53
53300;BME280;39187;48.476;8.310;2023-08-31T07:22:45;91035.81;;;19.42;49.70
53300;BME280;39187;48.476;8.310;2023-08-31T07:25:11;91035.25;;;19.18;50.19
53300;BME280;39187;48.476;8.310;2023-08-31T07:27:37;91039.06;;;19.67;49.13
53300;BME280;39187;48.476;8.310;2023-08-31T07:30:04;91043.75;;;19.46;49.42
53300;BME280;39187;48.476;8.310;2023-08-31T07:32:31;91039.47;;;20.06;48.11
53300;BME280;39187;48.476;8.310;2023-08-31T07:35:02;91044.09;;;20.25;47.31
53300;BME280;39187;48.476;8.310;2023-08-31T07:37:30;91032.78;;;19.75;45.36
53300;BME280;39187;48.476;8.310;2023-08-31T07:39:55;91044.28;;;20.16;46.28
53300;BME280;39187;48.476;8.310;2023-08-31T07:42:21;91052.94;;;20.26;46.34
53300;BME280;39187;48.476;8.310;2023-08-31T07:44:46;91058.38;;;20.52;43.87
53300;BME280;39187;48.476;8.310;2023-08-31T07:47:12;91062.53;;;20.27;45.50
53300;BME280;39187;48.476;8.310;2023-08-31T07:49:38;91055.34;;;19.98;45.16
53300;BME280;39187;48.476;8.310;2023-08-31T07:52:03;91064.44;;;20.41;44.80
53300;BME280;39187;48.476;8.310;2023-08-31T07:54:29;91067.97;;;19.60;45.32
53300;BME280;39187;48.476;8.310;2023-08-31T07:56:54;91073.22;;;19.90;45.11
53300;BME280;39187;48.476;8.310;2023-08-31T07:59:20;91071.00;;;20.14;44.91
53300;BME280;39187;48.476;8.310;2023-08-31T08:01:46;91084.06;;;20.16;44.05
53300;BME280;39187;48.476;8.310;2023-08-31T08:04:11;91092.16;;;20.16;45.26
53300;BME280;39187;48.476;8.310;2023-08-31T08:06:37;91083.88;;;20.25;44.87
53300;BME280;39187;48.476;8.310;2023-08-31T08:09:03;91084.00;;;20.62;44.23
53300;BME280;39187;48.476;8.310;2023-08-31T08:11:30;91087.25;;;19.94;44.96
53300;BME280;39187;48.476;8.310;2023-08-31T08:13:56;91094.22;;;19.80;45.31
53300;BME280;39187;48.476;8.310;2023-08-31T08:16:21;91085.81;;;20.45;44.79
53300;BME280;39187;48.476;8.310;2023-08-31T08:18:47;91094.25;;;20.06;45.71
53300;BME280;39187;48.476;8.310;2023-08-31T08:21:12;91097.81;;;20.18;45.43
53300;BME280;39187;48.476;8.310;2023-08-31T08:23:38;91104.75;;;20.45;45.77
53300;BME280;39187;48.476;8.310;2023-08-31T08:26:04;91101.88;;;20.79;45.27
53300;BME280;39187;48.476;8.310;2023-08-31T08:28:29;91104.97;;;20.41;46.05
53300;BME280;39187;48.476;8.310;2023-08-31T08:30:55;91109.88;;;19.76;45.70
53300;BME280;39187;48.476;8.310;2023-08-31T08:33:20;91117.09;;;20.05;46.48
53300;BME280;39187;48.476;8.310;2023-08-31T08:35:46;91120.94;;;20.19;46.28
53300;BME280;39187;48.476;8.310;2023-08-31T08:38:12;91114.94;;;19.48;46.52
53300;BME280;39187;48.476;8.310;2023-08-31T08:40:37;91118.88;;;19.88;46.79
53300;BME280;39187;48.476;8.310;2023-08-31T08:43:07;91114.88;;;19.83;46.53
53300;BME280;39187;48.476;8.310;2023-08-31T08:45:37;91121.41;;;20.17;45.70
53300;BME280;39187;48.476;8.310;2023-08-31T08:48:07;91120.06;;;19.67;45.99
53300;BME280;39187;48.476;8.310;2023-08-31T08:50:34;91117.44;;;20.13;45.72
53300;BME280;39187;48.476;8.310;2023-08-31T08:53:01;91133.75;;;20.03;46.12
53300;BME280;39187;48.476;8.310;2023-08-31T08:55:27;91128.75;;;20.17;45.30
53300;BME280;39187;48.476;8.310;2023-08-31T08:57:53;91134.19;;;19.76;46.03
53300;BME280;39187;48.476;8.310;2023-08-31T09:00:19;91139.75;;;19.03;47.30
53300;BME280;39187;48.476;8.310;2023-08-31T09:02:44;91134.19;;;19.56;45.83
53300;BME280;39187;48.476;8.310;2023-08-31T09:05:11;91140.03;;;19.19;45.45
53300;BME280;39187;48.476;8.310;2023-08-31T09:07:36;91137.06;;;18.29;47.35
53300;BME280;39187;48.476;8.310;2023-08-31T09:10:03;91141.53;;;18.47;46.95
53300;BME280;39187;48.476;8.310;2023-08-31T09:12:29;91144.72;;;18.60;47.63
53300;BME280;39187;48.476;8.310;2023-08-31T09:14:59;91143.19;;;18.30;48.17
53300;BME280;39187;48.476;8.310;2023-08-31T09:17:25;91149.00;;;18.81;47.20
53300;BME280;39187;48.476;8.310;2023-08-31T09:19:59;91150.09;;;19.04;46.52
53300;BME280;39187;48.476;8.310;2023-08-31T09:22:25;91145.75;;;18.10;49.66
53300;BME280;39187;48.476;8.310;2023-08-31T09:24:51;91158.22;;;17.83;48.31
53300;BME280;39187;48.476;8.310;2023-08-31T09:27:20;91140.97;;;18.43;48.41
53300;BME280;39187;48.476;8.310;2023-08-31T09:29:46;91140.94;;;18.28;47.87
53300;BME280;39187;48.476;8.310;2023-08-31T09:32:18;91148.59;;;18.06;48.63
53300;BME280;39187;48.476;8.310;2023-08-31T09:34:45;91147.75;;;18.00;49.50
53300;BME280;39187;48.476;8.310;2023-08-31T09:37:10;91149.78;;;17.90;49.18
53300;BME280;39187;48.476;8.310;2023-08-31T09:39:38;91156.91;;;18.17;49.13
53300;BME280;39187;48.476;8.310;2023-08-31T09:42:04;91155.75;;;17.71;50.32
53300;BME280;39187;48.476;8.310;2023-08-31T09:44:30;91163.94;;;17.19;51.81
53300;BME280;39187;48.476;8.310;2023-08-31T09:46:56;91162.09;;;17.58;52.06
53300;BME280;39187;48.476;8.310;2023-08-31T09:49:24;91161.44;;;17.40;52.18
53300;BME280;39187;48.476;8.310;2023-08-31T09:51:51;91158.66;;;17.25;52.45
53300;BME280;39187;48.476;8.310;2023-08-31T09:54:18;91158.97;;;17.51;51.18
53300;BME280;39187;48.476;8.310;2023-08-31T09:56:46;91161.25;;;17.19;53.06
53300;BME280;39187;48.476;8.310;2023-08-31T09:59:13;91173.00;;;17.22;53.12
53300;BME280;39187;48.476;8.310;2023-08-31T10:01:40;91176.25;;;16.24;53.68
53300;BME280;39187;48.476;8.310;2023-08-31T10:04:06;91184.41;;;16.48;53.17
53300;BME280;39187;48.476;8.310;2023-08-31T10:06:35;91179.16;;;16.80;52.86
53300;BME280;39187;48.476;8.310;2023-08-31T10:09:04;91176.66;;;16.40;53.81
53300;BME280;39187;48.476;8.310;2023-08-31T10:11:30;91167.56;;;16.38;53.35
53300;BME280;39187;48.476;8.310;2023-08-31T10:13:57;91173.84;;;16.44;53.58
53300;BME280;39187;48.476;8.310;2023-08-31T10:16:25;91172.03;;;16.41;54.55
53300;BME280;39187;48.476;8.310;2023-08-31T10:18:52;91166.78;;;16.74;53.66
53300;BME280;39187;48.476;8.310;2023-08-31T10:21:18;91165.88;;;16.77;54.02
53300;BME280;39187;48.476;8.310;2023-08-31T10:23:48;91158.78;;;15.92;56.45
53300;BME280;39187;48.476;8.310;2023-08-31T10:26:27;91160.44;;;15.98;56.50
53300;BME280;39187;48.476;8.310;2023-08-31T10:28:53;91167.56;;;16.38;55.67
53300;BME280;39187;48.476;8.310;2023-08-31T10:31:20;91163.94;;;16.59;55.99
53300;BME280;39187;48.476;8.310;2023-08-31T10:34:01;91169.47;;;16.56;56.81
53300;BME280;39187;48.476;8.310;2023-08-31T10:39:05;91171.72;;;16.39;56.75
53300;BME280;39187;48.476;8.310;2023-08-31T10:41:35;91166.84;;;16.01;57.16
53300;BME280;39187;48.476;8.310;2023-08-31T10:44:01;91166.84;;;16.19;55.99
53300;BME280;39187;48.476;8.310;2023-08-31T10:48:57;91168.19;;;15.96;56.89
53300;BME280;39187;48.476;8.310;2023-08-31T10:51:32;91168.63;;;16.13;57.16
53300;BME280;39187;48.476;8.310;2023-08-31T10:54:05;91158.03;;;16.10;57.04
53300;BME280;39187;48.476;8.310;2023-08-31T10:56:32;91159.81;;;15.76;57.12
53300;BME280;39187;48.476;8.310;2023-08-31T10:58:59;91164.91;;;15.92;57.55
53300;BME280;39187;48.476;8.310;2023-08-31T11:01:53;91173.31;;;15.45;59.72
53300;BME280;39187;48.476;8.310;2023-08-31T11:04:23;91174.41;;;15.08;60.58
53300;BME280;39187;48.476;8.310;2023-08-31T11:06:50;91175.41;;;15.50;60.70
53300;BME280;39187;48.476;8.310;2023-08-31T11:09:33;91174.72;;;15.59;61.39
53300;BME280;39187;48.476;8.310;2023-08-31T11:12:00;91171.81;;;14.95;63.42
53300;BME280;39187;48.476;8.310;2023-08-31T11:14:25;91170.25;;;15.16;63.22
53300;BME280;39187;48.476;8.310;2023-08-31T11:16:51;91184.22;;;15.02;64.01
53300;BME280;39187;48.476;8.310;2023-08-31T11:19:17;91185.38;;;15.41;63.11
53300;BME280;39187;48.476;8.310;2023-08-31T11:21:43;91176.47;;;15.04;65.91
53300;BME280;39187;48.476;8.310;2023-08-31T11:24:08;91176.34;;;14.46;67.55
53300;BME280;39187;48.476;8.310;2023-08-31T11:26:35;91183.97;;;14.78;67.16
53300;BME280;39187;48.476;8.310;2023-08-31T11:29:00;91184.56;;;14.82;67.63
53300;BME280;39187;48.476;8.310;2023-08-31T11:31:26;91177.09;;;14.77;68.29
53300;BME280;39187;48.476;8.310;2023-08-31T11:33:54;91172.13;;;14.66;68.94
53300;BME280;39187;48.476;8.310;2023-08-31T11:36:21;91173.16;;;13.94;74.39
53300;BME280;39187;48.476;8.310;2023-08-31T11:38:48;91166.03;;;14.22;75.10
53300;BME280;39187;48.476;8.310;2023-08-31T11:41:14;91171.28;;;14.48;73.36
53300;BME280;39187;48.476;8.310;2023-08-31T11:43:40;91169.28;;;14.17;75.55
53300;BME280;39187;48.476;8.310;2023-08-31T11:46:06;91167.56;;;14.01;78.85
53300;BME280;39187;48.476;8.310;2023-08-31T11:48:33;91166.09;;;13.88;76.44
53300;BME280;39187;48.476;8.310;2023-08-31T11:50:59;91162.72;;;13.96;77.75
53300;BME280;39187;48.476;8.310;2023-08-31T11:53:26;91167.44;;;14.27;77.07
53300;BME280;39187;48.476;8.310;2023-08-31T11:55:53;91169.06;;;14.46;75.94
53300;BME280;39187;48.476;8.310;2023-08-31T11:58:19;91171.41;;;14.44;72.93
53300;BME280;39187;48.476;8.310;2023-08-31T12:00:54;91169.22;;;14.30;70.56
53300;BME280;39187;48.476;8.310;2023-08-31T12:03:19;91177.22;;;14.42;70.70
53300;BME280;39187;48.476;8.310;2023-08-31T12:05:46;91167.16;;;14.56;71.31
53300;BME280;39187;48.476;8.310;2023-08-31T12:08:12;91158.00;;;14.66;72.30
53300;BME280;39187;48.476;8.310;2023-08-31T12:10:42;91161.69;;;14.99;72.61
53300;BME280;39187;48.476;8.310;2023-08-31T12:13:11;91168.19;;;15.20;68.90
53300;BME280;39187;48.476;8.310;2023-08-31T12:15:38;91167.59;;;15.25;70.55
53300;BME280;39187;48.476;8.310;2023-08-31T12:18:13;91166.72;;;15.37;70.20
53300;BME280;39187;48.476;8.310;2023-08-31T12:20:46;91173.75;;;15.35;67.16
53300;BME280;39187;48.476;8.310;2023-08-31T12:23:13;91167.03;;;14.90;70.91
53300;BME280;39187;48.476;8.310;2023-08-31T12:25:48;91165.94;;;15.18;70.91
53300;BME280;39187;48.476;8.310;2023-08-31T12:28:15;91176.19;;;15.11;70.52
53300;BME280;39187;48.476;8.310;2023-08-31T12:30:52;91174.06;;;14.97;70.56
53300;BME280;39187;48.476;8.310;2023-08-31T12:33:19;91175.00;;;15.12;69.60
53300;BME280;39187;48.476;8.310;2023-08-31T12:35:45;91180.53;;;15.17;70.26
53300;BME280;39187;48.476;8.310;2023-08-31T12:38:11;91175.63;;;14.54;75.08
53300;BME280;39187;48.476;8.310;2023-08-31T12:40:37;91182.66;;;14.61;76.99
53300;BME280;39187;48.476;8.310;2023-08-31T12:43:06;91177.00;;;14.90;73.43
53300;BME280;39187;48.476;8.310;2023-08-31T12:45:32;91181.22;;;14.69;75.89
53300;BME280;39187;48.476;8.310;2023-08-31T12:47:58;91192.38;;;14.67;77.98
53300;BME280;39187;48.476;8.310;2023-08-31T12:50:24;91175.00;;;15.12;75.63
53300;BME280;39187;48.476;8.310;2023-08-31T12:52:49;91175.00;;;15.12;74.70
53300;BME280;39187;48.476;8.310;2023-08-31T12:55:15;91175.38;;;14.92;74.44
53300;BME280;39187;48.476;8.310;2023-08-31T12:57:42;91174.34;;;14.90;73.61
53300;BME280;39187;48.476;8.310;2023-08-31T13:00:09;91180.38;;;15.12;73.14
53300;BME280;39187;48.476;8.310;2023-08-31T13:02:39;91177.78;;;14.68;76.42